createdAt,value
2023-01-19T00:01:41.542Z,1.30
2023-01-19T00:04:08.755Z,1.33
2023-01-19T00:06:36.141Z,1.36
2023-01-19T00:09:03.523Z,1.33
2023-01-19T00:11:30.736Z,1.35
2023-01-19T00:13:58.945Z,1.33
2023-01-19T00:16:26.351Z,1.30
2023-01-19T00:18:53.748Z,1.38
2023-01-19T00:21:24.728Z,1.37
2023-01-19T00:23:52.873Z,1.34
2023-01-19T00:26:22.415Z,1.28
2023-01-19T00:28:50.736Z,1.25
2023-01-19T00:31:20.655Z,1.35
2023-01-19T00:33:52.785Z,1.48
2023-01-19T00:36:20.357Z,1.49
2023-01-19T00:38:47.679Z,1.47
2023-01-19T00:41:14.995Z,1.50
2023-01-19T00:43:42.233Z,1.58
2023-01-19T00:46:09.772Z,1.64
2023-01-19T00:48:37.045Z,1.65
2023-01-19T00:51:04.431Z,1.62
2023-01-19T00:53:32.691Z,1.51
2023-01-19T00:56:02.222Z,1.51
2023-01-19T00:58:29.513Z,1.56
2023-01-19T01:01:03.617Z,1.59
2023-01-19T01:03:31.162Z,1.62
2023-01-19T01:05:58.904Z,1.73
2023-01-19T01:08:26.099Z,1.68
2023-01-19T01:10:53.272Z,1.76
2023-01-19T01:13:22.402Z,1.70
2023-01-19T01:15:53.486Z,1.87
2023-01-19T01:18:21.635Z,1.84
2023-01-19T01:20:49.039Z,1.87
2023-01-19T01:23:16.389Z,1.89
2023-01-19T01:25:43.720Z,1.89
2023-01-19T01:28:10.899Z,1.83
2023-01-19T01:30:41.297Z,1.76
2023-01-19T01:33:08.962Z,1.65
2023-01-19T01:35:36.196Z,1.72
2023-01-19T01:38:04.044Z,1.74
2023-01-19T01:40:31.422Z,1.60
2023-01-19T01:42:58.906Z,1.49
2023-01-19T01:45:35.386Z,1.56
2023-01-19T01:48:16.097Z,1.55
2023-01-19T01:51:22.246Z,1.63
2023-01-19T01:54:14.816Z,1.71
2023-01-19T01:56:48.945Z,1.70
2023-01-19T01:59:40.109Z,1.80
2023-01-19T02:02:34.715Z,1.81
2023-01-19T02:05:09.536Z,1.87
2023-01-19T02:08:26.160Z,1.97
2023-01-19T02:11:14.164Z,2.00
2023-01-19T02:13:47.054Z,1.92
2023-01-19T02:16:16.780Z,1.97
2023-01-19T02:18:45.436Z,1.99
2023-01-19T02:21:38.614Z,1.87
2023-01-19T02:24:10.967Z,2.01
2023-01-19T02:26:47.012Z,1.88
2023-01-19T02:29:21.554Z,2.01
2023-01-19T02:31:48.882Z,2.17
2023-01-19T02:34:20.160Z,2.25
2023-01-19T02:36:59.095Z,2.26
2023-01-19T02:39:38.916Z,2.21
2023-01-19T02:42:27.433Z,2.16
2023-01-19T02:44:57.283Z,2.24
2023-01-19T02:47:25.089Z,2.33
2023-01-19T02:50:00.843Z,2.38
2023-01-19T02:52:28.604Z,2.42
2023-01-19T02:55:32.499Z,2.39
2023-01-19T02:58:26.733Z,2.43
2023-01-19T03:01:19.024Z,2.39
2023-01-19T03:04:17.861Z,2.23
2023-01-19T03:06:59.796Z,1.92
2023-01-19T03:09:42.155Z,1.84
2023-01-19T03:12:24.661Z,1.60
2023-01-19T03:14:59.231Z,1.53
2023-01-19T03:17:30.050Z,1.58
2023-01-19T03:19:57.735Z,1.68
2023-01-19T03:22:29.578Z,1.79
2023-01-19T03:25:01.481Z,1.83
2023-01-19T03:27:40.889Z,1.82
2023-01-19T03:30:29.025Z,1.65
2023-01-19T03:33:03.376Z,1.66
2023-01-19T03:35:34.895Z,1.78
2023-01-19T03:38:08.723Z,1.74
2023-01-19T03:40:36.871Z,1.77
2023-01-19T03:43:05.362Z,1.82
2023-01-19T03:45:36.890Z,1.84
2023-01-19T03:48:06.140Z,1.86
2023-01-19T03:50:33.473Z,1.78
2023-01-19T03:53:13.117Z,1.79
2023-01-19T03:55:45.610Z,1.69
2023-01-19T03:58:13.096Z,1.70
2023-01-19T04:00:40.832Z,1.53
2023-01-19T04:03:15.537Z,1.56
2023-01-19T04:05:43.453Z,1.64
2023-01-19T04:08:12.021Z,1.80
2023-01-19T04:10:39.317Z,1.84
2023-01-19T04:13:06.763Z,1.95
2023-01-19T04:15:34.167Z,1.99
2023-01-19T04:18:01.790Z,2.02
2023-01-19T04:20:29.447Z,2.10
2023-01-19T04:23:00.732Z,2.17
2023-01-19T04:25:29.374Z,2.12
2023-01-19T04:27:59.780Z,2.19
2023-01-19T04:30:27.913Z,2.19
2023-01-19T04:32:56.337Z,2.23
2023-01-19T04:35:23.797Z,2.20
2023-01-19T04:37:54.203Z,2.09
2023-01-19T04:40:21.359Z,2.17
2023-01-19T04:42:48.651Z,2.20
2023-01-19T04:45:15.994Z,2.10
2023-01-19T04:47:43.275Z,2.16
2023-01-19T04:50:12.073Z,2.06
2023-01-19T04:52:40.235Z,1.70
2023-01-19T04:55:08.801Z,1.70
2023-01-19T04:57:36.154Z,1.73
2023-01-19T05:00:07.573Z,1.58
2023-01-19T05:02:35.825Z,1.47
2023-01-19T05:05:04.745Z,1.37
2023-01-19T05:07:31.983Z,1.28
2023-01-19T05:09:59.143Z,1.20
2023-01-19T05:12:26.458Z,1.40
2023-01-19T05:14:54.020Z,1.41
2023-01-19T05:17:21.153Z,1.55
2023-01-19T05:19:49.007Z,1.60
2023-01-19T05:22:16.636Z,1.49
2023-01-19T05:24:43.891Z,1.45
2023-01-19T05:27:13.742Z,1.53
2023-01-19T05:29:43.227Z,1.39
2023-01-19T05:32:10.435Z,1.41
2023-01-19T05:34:37.670Z,1.51
2023-01-19T05:37:07.347Z,1.74
2023-01-19T05:39:37.579Z,1.87
2023-01-19T05:42:04.963Z,1.83
2023-01-19T05:44:32.097Z,1.92
2023-01-19T05:46:59.392Z,1.96
2023-01-19T05:49:26.719Z,1.96
2023-01-19T05:51:53.993Z,1.82
2023-01-19T05:54:21.441Z,1.89
2023-01-19T05:56:48.704Z,1.69
2023-01-19T05:59:23.998Z,1.56
2023-01-19T06:01:53.192Z,1.43
2023-01-19T06:04:21.504Z,1.41
2023-01-19T06:06:50.272Z,1.38
2023-01-19T06:09:18.267Z,1.19
2023-01-19T06:11:47.015Z,1.22
2023-01-19T06:14:14.284Z,1.05
2023-01-19T06:16:41.671Z,1.00
2023-01-19T06:19:09.450Z,1.08
2023-01-19T06:21:36.631Z,1.10
2023-01-19T06:24:04.214Z,1.01
2023-01-19T06:26:31.430Z,1.09
2023-01-19T06:28:58.635Z,1.07
2023-01-19T06:31:28.849Z,1.00
2023-01-19T06:33:56.153Z,0.97
2023-01-19T06:36:23.505Z,1.05
2023-01-19T06:38:50.695Z,1.00
2023-01-19T06:41:17.930Z,0.97
2023-01-19T06:43:45.083Z,1.19
2023-01-19T06:46:13.508Z,1.35
2023-01-19T06:48:40.814Z,1.47
2023-01-19T06:51:08.157Z,1.54
2023-01-19T06:53:35.431Z,1.64
2023-01-19T06:56:04.331Z,1.72
2023-01-19T06:58:32.374Z,1.50
2023-01-19T07:01:04.955Z,1.62
2023-01-19T07:03:33.234Z,1.68
2023-01-19T07:06:02.544Z,1.58
2023-01-19T07:08:30.572Z,1.59
2023-01-19T07:11:26.649Z,1.80
2023-01-19T07:13:57.622Z,1.85
2023-01-19T07:16:25.146Z,1.64
2023-01-19T07:18:52.442Z,1.61
2023-01-19T07:21:19.680Z,1.61
2023-01-19T07:23:53.775Z,1.31
2023-01-19T07:26:22.194Z,1.51
2023-01-19T07:28:50.185Z,1.52
2023-01-19T07:31:18.334Z,1.47
2023-01-19T07:33:46.069Z,1.56
2023-01-19T07:36:13.726Z,1.47
2023-01-19T07:38:40.894Z,1.41
2023-01-19T07:41:10.398Z,1.40
2023-01-19T07:43:37.704Z,1.44
2023-01-19T07:46:07.318Z,1.48
2023-01-19T07:48:34.766Z,1.28
2023-01-19T07:51:11.721Z,1.36
2023-01-19T07:53:40.241Z,1.28
2023-01-19T07:56:07.954Z,1.29
2023-01-19T07:58:35.166Z,1.45
2023-01-19T08:01:10.957Z,1.36
2023-01-19T08:03:39.044Z,1.46
2023-01-19T08:06:07.097Z,1.42
2023-01-19T08:08:34.879Z,1.18
2023-01-19T08:11:09.681Z,1.34
2023-01-19T08:13:36.919Z,1.50
2023-01-19T08:16:05.084Z,1.47
2023-01-19T08:18:32.396Z,1.56
2023-01-19T08:21:00.349Z,1.58
2023-01-19T08:23:28.187Z,1.43
2023-01-19T08:25:55.484Z,1.20
2023-01-19T08:28:22.803Z,1.35
2023-01-19T08:30:56.290Z,1.35
2023-01-19T08:33:25.375Z,1.44
2023-01-19T08:35:54.418Z,1.45
2023-01-19T08:38:21.715Z,1.52
2023-01-19T08:40:49.366Z,1.38
2023-01-19T08:43:17.856Z,1.37
2023-01-19T08:45:51.620Z,1.34
2023-01-19T08:48:22.443Z,1.47
2023-01-19T08:50:50.420Z,1.44
2023-01-19T08:53:19.220Z,1.48
2023-01-19T08:55:47.007Z,1.26
2023-01-19T08:58:14.164Z,1.23
2023-01-19T09:00:41.946Z,1.30
2023-01-19T09:03:12.800Z,1.37
2023-01-19T09:05:40.921Z,1.28
2023-01-19T09:08:13.040Z,1.07
2023-01-19T09:10:50.041Z,1.20
2023-01-19T09:13:19.024Z,1.01
2023-01-19T09:15:46.998Z,1.07
2023-01-19T09:18:18.920Z,1.18
2023-01-19T09:20:48.576Z,1.16
2023-01-19T09:23:19.557Z,1.20
2023-01-19T09:25:48.454Z,1.17
2023-01-19T09:28:17.771Z,1.42
2023-01-19T09:30:45.612Z,1.11
2023-01-19T09:33:16.942Z,1.12
2023-01-19T09:35:47.075Z,1.20
2023-01-19T09:38:20.442Z,1.16
2023-01-19T09:40:55.281Z,1.21
2023-01-19T09:43:47.525Z,1.19
2023-01-19T09:46:22.896Z,0.99
2023-01-19T09:48:59.878Z,0.71
2023-01-19T09:51:33.935Z,0.70
2023-01-19T09:54:04.311Z,0.63
2023-01-19T09:56:32.985Z,0.72
2023-01-19T09:59:01.467Z,0.92
2023-01-19T10:01:36.762Z,0.86
2023-01-19T10:04:42.503Z,0.73
2023-01-19T10:07:32.953Z,0.59
2023-01-19T10:10:33.371Z,0.57
2023-01-19T10:13:34.459Z,0.63
2023-01-19T10:16:45.813Z,0.67
2023-01-19T10:19:38.192Z,0.68
2023-01-19T10:22:34.243Z,0.80
2023-01-19T10:25:07.868Z,0.86
2023-01-19T10:27:38.088Z,0.80
2023-01-19T10:30:10.292Z,0.76
2023-01-19T10:32:39.515Z,0.99
2023-01-19T10:35:26.131Z,1.01
2023-01-19T10:38:01.735Z,0.93
2023-01-19T10:40:51.887Z,0.80
2023-01-19T10:43:34.584Z,0.97
2023-01-19T10:46:29.056Z,1.00
2023-01-19T10:48:56.714Z,0.87
2023-01-19T10:51:24.135Z,0.76
2023-01-19T10:54:03.515Z,1.13
2023-01-19T10:56:37.213Z,1.08
2023-01-19T10:59:06.969Z,1.13
2023-01-19T11:01:38.222Z,1.17
2023-01-19T11:04:29.445Z,1.18
2023-01-19T11:07:18.830Z,1.20
2023-01-19T11:09:47.657Z,1.14
2023-01-19T11:12:24.481Z,0.99
2023-01-19T11:14:52.416Z,1.13
2023-01-19T11:17:25.346Z,1.08
2023-01-19T11:20:01.705Z,1.09
2023-01-19T11:22:33.192Z,1.04
2023-01-19T11:25:05.089Z,0.95
2023-01-19T11:27:36.341Z,0.98
2023-01-19T11:30:21.561Z,1.08
2023-01-19T11:32:49.467Z,1.00
2023-01-19T11:35:39.777Z,1.04
2023-01-19T11:38:13.160Z,1.10
2023-01-19T11:40:42.019Z,0.96
2023-01-19T11:43:14.057Z,0.98
2023-01-19T11:45:41.635Z,1.06
2023-01-19T11:48:43.148Z,1.19
2023-01-19T11:51:20.037Z,1.04
2023-01-19T11:53:52.830Z,1.04
2023-01-19T11:56:26.373Z,1.15
2023-01-19T11:58:53.815Z,1.18
2023-01-19T12:01:33.210Z,1.25
2023-01-19T12:04:21.861Z,1.20
2023-01-19T12:06:54.501Z,1.23
2023-01-19T12:09:34.169Z,1.20
2023-01-19T12:12:17.210Z,1.26
2023-01-19T12:15:06.903Z,1.27
2023-01-19T12:17:45.548Z,1.22
2023-01-19T12:20:44.687Z,1.23
2023-01-19T12:23:12.016Z,1.17
2023-01-19T12:26:03.203Z,1.37
2023-01-19T12:28:39.274Z,1.39
2023-01-19T12:31:08.090Z,1.30
2023-01-19T12:33:39.713Z,1.11
2023-01-19T12:36:38.769Z,1.31
2023-01-19T12:39:16.935Z,1.33
2023-01-19T12:41:46.068Z,1.25
2023-01-19T12:44:16.531Z,1.07
2023-01-19T12:46:49.256Z,1.26
2023-01-19T12:49:26.432Z,1.28
2023-01-19T12:52:30.752Z,1.31
2023-01-19T12:55:13.269Z,1.27
2023-01-19T12:58:03.963Z,1.29
2023-01-19T13:00:47.159Z,1.42
2023-01-19T13:03:20.475Z,1.27
2023-01-19T13:05:55.497Z,1.27
2023-01-19T13:08:59.171Z,1.31
2023-01-19T13:11:29.380Z,1.38
2023-01-19T13:13:58.555Z,1.35
2023-01-19T13:16:28.904Z,1.39
2023-01-19T13:19:07.902Z,1.55
2023-01-19T13:21:44.702Z,1.73
2023-01-19T13:24:22.819Z,1.54
2023-01-19T13:26:49.988Z,1.47
2023-01-19T13:29:43.023Z,1.42
2023-01-19T13:32:18.884Z,1.46
2023-01-19T13:34:54.682Z,1.37
2023-01-19T13:37:32.871Z,1.25
2023-01-19T13:40:01.132Z,1.31
2023-01-19T13:42:37.642Z,1.32
2023-01-19T13:45:27.876Z,1.50
2023-01-19T13:47:58.533Z,1.35
2023-01-19T13:50:32.985Z,1.33
2023-01-19T13:53:14.437Z,1.20
2023-01-19T13:56:05.365Z,1.22
2023-01-19T13:58:32.556Z,1.03
2023-01-19T14:00:59.924Z,0.86
2023-01-19T14:03:27.404Z,1.00
2023-01-19T14:05:55.690Z,1.09
2023-01-19T14:08:25.678Z,1.12
2023-01-19T14:10:56.452Z,0.92
2023-01-19T14:13:26.288Z,0.87
2023-01-19T14:16:18.608Z,0.93
2023-01-19T14:18:46.115Z,0.91
2023-01-19T14:21:15.963Z,1.03
2023-01-19T14:24:05.613Z,0.85
2023-01-19T14:26:48.983Z,0.84
2023-01-19T14:29:27.950Z,0.99
2023-01-19T14:32:05.671Z,0.92
2023-01-19T14:35:04.216Z,0.85
2023-01-19T14:37:37.654Z,0.95
2023-01-19T14:40:21.657Z,1.11
2023-01-19T14:43:00.422Z,1.01
2023-01-19T14:45:35.427Z,1.02
2023-01-19T14:48:19.353Z,0.98
2023-01-19T14:51:02.388Z,1.04
2023-01-19T14:53:37.345Z,0.96
2023-01-19T14:56:06.870Z,0.74
2023-01-19T14:58:35.987Z,0.64
2023-01-19T15:01:04.755Z,0.42
2023-01-19T15:03:43.967Z,0.72
2023-01-19T15:06:19.495Z,0.65
2023-01-19T15:08:48.880Z,0.68
2023-01-19T15:11:23.601Z,0.71
2023-01-19T15:13:51.819Z,0.60
2023-01-19T15:16:20.053Z,0.49
2023-01-19T15:18:47.414Z,0.60
2023-01-19T15:21:19.621Z,0.58
2023-01-19T15:23:47.697Z,0.60
2023-01-19T15:26:20.886Z,0.66
2023-01-19T15:28:49.451Z,0.59
2023-01-19T15:31:22.974Z,0.57
2023-01-19T15:33:50.578Z,0.60
2023-01-19T15:36:21.012Z,0.46
2023-01-19T15:38:51.065Z,0.55
2023-01-19T15:41:28.050Z,0.47
2023-01-19T15:43:55.519Z,0.42
2023-01-19T15:46:27.600Z,0.54
2023-01-19T15:48:55.086Z,0.55
2023-01-19T15:51:27.894Z,0.48
2023-01-19T15:53:56.157Z,0.49
2023-01-19T15:56:29.456Z,0.53
2023-01-19T15:58:58.707Z,0.61
2023-01-19T16:01:32.891Z,0.59
2023-01-19T16:04:04.058Z,0.56
2023-01-19T16:06:32.513Z,0.43
2023-01-19T16:09:01.354Z,0.30
2023-01-19T16:11:33.778Z,0.37
2023-01-19T16:14:01.708Z,0.47
2023-01-19T16:16:29.498Z,0.41
2023-01-19T16:18:57.583Z,0.42
2023-01-19T16:21:25.284Z,0.52
2023-01-19T16:23:52.740Z,0.60
2023-01-19T16:26:29.202Z,0.37
2023-01-19T16:29:02.885Z,0.39
2023-01-19T16:31:30.587Z,0.55
2023-01-19T16:33:57.793Z,0.47
2023-01-19T16:36:34.053Z,0.31
2023-01-19T16:39:13.895Z,0.37
2023-01-19T16:41:42.425Z,0.37
2023-01-19T16:44:12.393Z,0.38
2023-01-19T16:46:43.469Z,0.34
2023-01-19T16:49:13.311Z,0.40
2023-01-19T16:51:40.902Z,0.34
2023-01-19T16:54:12.285Z,0.55
2023-01-19T16:56:39.595Z,0.58
2023-01-19T16:59:07.114Z,0.57
2023-01-19T17:01:34.492Z,0.72
2023-01-19T17:04:04.888Z,0.55
2023-01-19T17:06:32.708Z,0.39
2023-01-19T17:09:00.205Z,0.45
2023-01-19T17:11:30.240Z,0.53
2023-01-19T17:14:06.456Z,0.55
2023-01-19T17:16:35.261Z,0.36
2023-01-19T17:19:07.254Z,0.27
2023-01-19T17:21:34.953Z,0.58
2023-01-19T17:24:02.301Z,0.59
2023-01-19T17:26:31.167Z,0.52
2023-01-19T17:29:05.997Z,0.52
2023-01-19T17:31:34.576Z,0.61
2023-01-19T17:34:02.623Z,0.49
2023-01-19T17:36:33.040Z,0.51
2023-01-19T17:39:06.210Z,0.56
2023-01-19T17:41:35.425Z,0.45
2023-01-19T17:44:05.290Z,0.56
2023-01-19T17:46:36.947Z,0.61
2023-01-19T17:49:07.783Z,0.67
2023-01-19T17:51:39.987Z,0.70
2023-01-19T17:54:07.384Z,0.45
2023-01-19T17:56:37.684Z,0.15
2023-01-19T17:59:07.976Z,0.13
2023-01-19T18:01:40.606Z,0.24
2023-01-19T18:04:09.527Z,0.48
2023-01-19T18:06:38.041Z,0.42
2023-01-19T18:09:07.447Z,0.35
2023-01-19T18:11:35.541Z,0.49
2023-01-19T18:14:02.955Z,0.59
2023-01-19T18:16:32.862Z,0.68
2023-01-19T18:19:00.226Z,0.55
2023-01-19T18:21:28.866Z,0.60
2023-01-19T18:24:02.514Z,0.25
2023-01-19T18:26:32.145Z,0.50
2023-01-19T18:29:00.386Z,0.62
2023-01-19T18:31:28.777Z,0.52
2023-01-19T18:33:56.695Z,0.47
2023-01-19T18:36:24.016Z,0.49
2023-01-19T18:38:51.657Z,0.45
2023-01-19T18:41:21.117Z,0.44
2023-01-19T18:43:49.387Z,0.38
2023-01-19T18:46:17.340Z,0.46
2023-01-19T18:48:44.879Z,0.25
2023-01-19T18:51:15.641Z,0.16
2023-01-19T18:53:43.774Z,0.28
2023-01-19T18:56:15.884Z,0.23
2023-01-19T18:58:45.811Z,0.13
2023-01-19T19:01:31.560Z,0.26
2023-01-19T19:04:00.007Z,0.12
2023-01-19T19:06:31.092Z,0.17
2023-01-19T19:08:59.493Z,-0.04
2023-01-19T19:11:28.222Z,0.08
2023-01-19T19:14:01.817Z,-0.21
2023-01-19T19:16:29.956Z,-0.16
2023-01-19T19:18:57.337Z,0.09
2023-01-19T19:21:28.207Z,0.05
2023-01-19T19:23:56.786Z,0.14
2023-01-19T19:26:31.373Z,0.16
2023-01-19T19:28:59.769Z,0.09
2023-01-19T19:31:30.799Z,0.12
2023-01-19T19:33:59.724Z,-0.21
2023-01-19T19:36:29.280Z,-0.31
2023-01-19T19:38:58.346Z,0.00
2023-01-19T19:41:27.699Z,0.07
2023-01-19T19:44:03.030Z,-0.04
2023-01-19T19:46:30.793Z,0.21
2023-01-19T19:48:58.378Z,0.08
2023-01-19T19:51:28.213Z,0.29
2023-01-19T19:53:59.138Z,0.23
2023-01-19T19:56:28.615Z,0.28
2023-01-19T19:58:58.064Z,0.40
2023-01-19T20:01:33.466Z,0.26
2023-01-19T20:04:10.788Z,0.13
2023-01-19T20:06:42.086Z,0.04
2023-01-19T20:09:12.744Z,-0.07
2023-01-19T20:11:43.443Z,-0.05
2023-01-19T20:14:16.507Z,0.17
2023-01-19T20:16:44.083Z,-0.01
2023-01-19T20:19:11.655Z,-0.18
2023-01-19T20:21:41.963Z,-0.20
2023-01-19T20:24:18.598Z,-0.15
2023-01-19T20:26:53.082Z,-0.05
2023-01-19T20:29:20.904Z,-0.16
2023-01-19T20:31:51.973Z,-0.18
2023-01-19T20:34:22.111Z,-0.25
2023-01-19T20:36:51.385Z,-0.08
2023-01-19T20:39:20.151Z,-0.14
2023-01-19T20:41:50.876Z,-0.17
2023-01-19T20:44:25.824Z,0.03
2023-01-19T20:46:54.986Z,0.19
2023-01-19T20:49:22.719Z,0.15
2023-01-19T20:51:53.682Z,0.18
2023-01-19T20:54:27.169Z,0.04
2023-01-19T20:56:54.542Z,-0.01
2023-01-19T20:59:22.656Z,0.04
2023-01-19T21:01:50.638Z,-0.03
2023-01-19T21:04:18.823Z,0.04
2023-01-19T21:06:46.296Z,0.06
2023-01-19T21:09:13.725Z,-0.03
2023-01-19T21:11:41.117Z,0.13
2023-01-19T21:14:08.640Z,0.21
2023-01-19T21:16:36.980Z,-0.07
2023-01-19T21:19:05.257Z,0.05
2023-01-19T21:21:32.561Z,-0.04
2023-01-19T21:24:01.968Z,-0.02
2023-01-19T21:26:30.338Z,0.08
2023-01-19T21:28:59.710Z,-0.12
2023-01-19T21:31:28.440Z,-0.11
2023-01-19T21:33:59.326Z,-0.04
2023-01-19T21:36:26.612Z,0.08
2023-01-19T21:39:00.626Z,0.00
2023-01-19T21:41:30.228Z,0.04
2023-01-19T21:43:58.714Z,-0.08
2023-01-19T21:46:29.696Z,-0.02
2023-01-19T21:49:04.006Z,-0.07
2023-01-19T21:51:33.641Z,-0.07
2023-01-19T21:54:07.320Z,0.01
2023-01-19T21:56:35.650Z,-0.01
2023-01-19T21:59:03.624Z,0.00
2023-01-19T22:01:34.482Z,-0.17
2023-01-19T22:04:01.931Z,-0.06
2023-01-19T22:06:32.230Z,0.15
2023-01-19T22:09:00.794Z,0.17
2023-01-19T22:11:28.869Z,-0.02
2023-01-19T22:13:56.287Z,-0.08
2023-01-19T22:16:24.152Z,-0.03
2023-01-19T22:18:56.338Z,0.04
2023-01-19T22:21:26.825Z,0.16
2023-01-19T22:23:59.278Z,0.04
2023-01-19T22:26:28.909Z,-0.08
2023-01-19T22:28:59.146Z,-0.07
2023-01-19T22:31:29.427Z,0.04
2023-01-19T22:33:57.339Z,0.17
2023-01-19T22:36:35.498Z,0.08
2023-01-19T22:39:09.262Z,0.07
2023-01-19T22:41:46.116Z,0.01
2023-01-19T22:44:23.080Z,-0.09
2023-01-19T22:46:54.463Z,-0.18
2023-01-19T22:49:22.085Z,-0.12
2023-01-19T22:51:49.551Z,-0.17
2023-01-19T22:54:16.890Z,-0.29
2023-01-19T22:56:44.170Z,-0.37
2023-01-19T22:59:11.585Z,-0.38
2023-01-19T23:01:42.906Z,-0.37
2023-01-19T23:04:15.854Z,-0.24
2023-01-19T23:06:43.867Z,-0.25
2023-01-19T23:09:14.105Z,-0.36
2023-01-19T23:11:45.287Z,-0.39
2023-01-19T23:14:18.962Z,-0.32
2023-01-19T23:16:47.362Z,-0.36
2023-01-19T23:19:17.135Z,-0.44
2023-01-19T23:21:45.397Z,-0.37
2023-01-19T23:24:13.170Z,-0.46
2023-01-19T23:26:40.457Z,-0.60
2023-01-19T23:29:14.209Z,-0.75
2023-01-19T23:31:46.727Z,-1.04
2023-01-19T23:34:15.423Z,-1.13
2023-01-19T23:37:01.324Z,-1.24
2023-01-19T23:39:28.787Z,-1.40
2023-01-19T23:41:55.932Z,-1.39
2023-01-19T23:44:25.947Z,-1.33
2023-01-19T23:46:57.435Z,-1.24
2023-01-19T23:49:25.483Z,-1.28
2023-01-19T23:51:52.745Z,-1.46
2023-01-19T23:54:20.112Z,-1.66
2023-01-19T23:56:47.371Z,-1.87
2023-01-19T23:59:16.649Z,-1.92
